sensor_id;sensor_type;location;lat;lon;timestamp;pressure;altitude;pressure_sealevel;temperature;humidity
57442;BME280;43284;47.042;15.498;2023-08-24T00:00:53;97329.84;;;20.06;100.00
57442;BME280;43284;47.042;15.498;2023-08-24T00:03:19;97329.72;;;20.07;100.00
57442;BME280;43284;47.042;15.498;2023-08-24T00:05:47;97327.91;;;20.08;100.00
57442;BME280;43284;47.042;15.498;2023-08-24T00:08:12;97328.88;;;20.07;100.00
57442;BME280;43284;47.042;15.498;2023-08-24T00:10:38;97328.16;;;20.05;100.00
57442;BME280;43284;47.042;15.498;2023-08-24T00:13:04;97328.16;;;20.05;100.00
57442;BME280;43284;47.042;15.498;2023-08-24T00:15:30;97326.59;;;20.02;100.00
57442;BME280;43284;47.042;15.498;2023-08-24T00:17:55;97326.28;;;19.95;100.00
57442;BME280;43284;47.042;15.498;2023-08-24T00:20:21;97327.00;;;19.98;100.00
57442;BME280;43284;47.042;15.498;2023-08-24T00:22:48;97320.59;;;20.00;100.00
57442;BME280;43284;47.042;15.498;2023-08-24T00:25:14;97318.91;;;19.99;100.00
57442;BME280;43284;47.042;15.498;2023-08-24T00:27:40;97318.00;;;19.89;100.00
57442;BME280;43284;47.042;15.498;2023-08-24T00:30:07;97320.91;;;19.86;100.00
57442;BME280;43284;47.042;15.498;2023-08-24T00:32:33;97321.03;;;19.84;100.00
57442;BME280;43284;47.042;15.498;2023-08-24T00:35:04;97323.47;;;19.76;100.00
57442;BME280;43284;47.042;15.498;2023-08-24T00:37:31;97316.63;;;19.73;100.00
57442;BME280;43284;47.042;15.498;2023-08-24T00:39:59;97320.25;;;19.72;100.00
57442;BME280;43284;47.042;15.498;2023-08-24T00:42:25;97317.09;;;19.67;100.00
57442;BME280;43284;47.042;15.498;2023-08-24T00:44:51;97318.31;;;19.63;100.00
57442;BME280;43284;47.042;15.498;2023-08-24T00:47:17;97323.63;;;19.63;100.00
57442;BME280;43284;47.042;15.498;2023-08-24T00:49:43;97329.66;;;19.65;100.00
57442;BME280;43284;47.042;15.498;2023-08-24T00:52:09;97335.72;;;19.56;100.00
57442;BME280;43284;47.042;15.498;2023-08-24T00:54:36;97323.81;;;19.50;100.00
57442;BME280;43284;47.042;15.498;2023-08-24T00:57:02;97316.69;;;19.51;100.00
57442;BME280;43284;47.042;15.498;2023-08-24T00:59:28;97326.47;;;19.50;100.00
57442;BME280;43284;47.042;15.498;2023-08-24T01:01:53;97318.63;;;19.49;100.00
57442;BME280;43284;47.042;15.498;2023-08-24T01:04:20;97318.88;;;19.46;100.00
57442;BME280;43284;47.042;15.498;2023-08-24T01:06:46;97313.84;;;19.43;100.00
57442;BME280;43284;47.042;15.498;2023-08-24T01:09:11;97310.34;;;19.42;100.00
57442;BME280;43284;47.042;15.498;2023-08-24T01:12:13;97313.94;;;19.41;100.00
57442;BME280;43284;47.042;15.498;2023-08-24T01:17:22;97314.22;;;19.38;100.00
57442;BME280;43284;47.042;15.498;2023-08-24T01:19:49;97316.59;;;19.41;100.00
57442;BME280;43284;47.042;15.498;2023-08-24T01:28:03;97324.59;;;19.30;100.00
57442;BME280;43284;47.042;15.498;2023-08-24T01:30:31;97319.41;;;19.28;100.00
57442;BME280;43284;47.042;15.498;2023-08-24T01:32:56;97319.28;;;19.30;100.00
57442;BME280;43284;47.042;15.498;2023-08-24T01:35:22;97311.22;;;19.31;100.00
57442;BME280;43284;47.042;15.498;2023-08-24T01:37:47;97316.53;;;19.31;100.00
57442;BME280;43284;47.042;15.498;2023-08-24T01:40:25;97312.31;;;19.29;100.00
57442;BME280;43284;47.042;15.498;2023-08-24T01:43:03;97314.97;;;19.29;100.00
57442;BME280;43284;47.042;15.498;2023-08-24T01:45:30;97315.19;;;19.26;100.00
57442;BME280;43284;47.042;15.498;2023-08-24T01:47:57;97316.31;;;19.23;100.00
57442;BME280;43284;47.042;15.498;2023-08-24T01:50:24;97321.72;;;19.22;100.00
57442;BME280;43284;47.042;15.498;2023-08-24T01:52:50;97326.44;;;19.18;100.00
57442;BME280;43284;47.042;15.498;2023-08-24T01:55:19;97330.91;;;19.18;100.00
57442;BME280;43284;47.042;15.498;2023-08-24T01:57:45;97322.97;;;19.18;100.00
57442;BME280;43284;47.042;15.498;2023-08-24T02:00:11;97327.16;;;19.20;100.00
57442;BME280;43284;47.042;15.498;2023-08-24T02:02:37;97311.97;;;19.22;100.00
57442;BME280;43284;47.042;15.498;2023-08-24T02:05:03;97312.56;;;19.26;100.00
57442;BME280;43284;47.042;15.498;2023-08-24T02:07:29;97314.97;;;19.29;100.00
57442;BME280;43284;47.042;15.498;2023-08-24T02:09:55;97313.88;;;19.31;100.00
57442;BME280;43284;47.042;15.498;2023-08-24T02:12:21;97320.72;;;19.34;100.00
57442;BME280;43284;47.042;15.498;2023-08-24T02:14:46;97309.66;;;19.29;100.00
57442;BME280;43284;47.042;15.498;2023-08-24T02:17:12;97310.78;;;19.26;100.00
57442;BME280;43284;47.042;15.498;2023-08-24T02:19:39;97309.19;;;19.24;100.00
57442;BME280;43284;47.042;15.498;2023-08-24T02:22:07;97306.69;;;19.22;100.00
57442;BME280;43284;47.042;15.498;2023-08-24T02:24:32;97305.69;;;19.23;100.00
57442;BME280;43284;47.042;15.498;2023-08-24T02:26:58;97298.47;;;19.25;100.00
57442;BME280;43284;47.042;15.498;2023-08-24T02:29:23;97302.81;;;19.26;100.00
57442;BME280;43284;47.042;15.498;2023-08-24T02:31:50;97307.03;;;19.29;100.00
57442;BME280;43284;47.042;15.498;2023-08-24T02:34:16;97306.16;;;19.28;100.00
57442;BME280;43284;47.042;15.498;2023-08-24T02:36:42;97307.97;;;19.28;100.00
57442;BME280;43284;47.042;15.498;2023-08-24T02:39:07;97303.66;;;19.27;100.00
57442;BME280;43284;47.042;15.498;2023-08-24T02:41:34;97301.13;;;19.25;100.00
57442;BME280;43284;47.042;15.498;2023-08-24T02:44:00;97298.84;;;19.21;100.00
57442;BME280;43284;47.042;15.498;2023-08-24T02:46:25;97299.97;;;19.07;100.00
57442;BME280;43284;47.042;15.498;2023-08-24T02:48:51;97302.84;;;19.04;100.00
57442;BME280;43284;47.042;15.498;2023-08-24T02:51:16;97310.22;;;19.00;100.00
57442;BME280;43284;47.042;15.498;2023-08-24T02:53:42;97311.28;;;18.98;100.00
57442;BME280;43284;47.042;15.498;2023-08-24T02:56:07;97312.63;;;18.92;100.00
57442;BME280;43284;47.042;15.498;2023-08-24T02:58:33;97320.72;;;18.79;100.00
57442;BME280;43284;47.042;15.498;2023-08-24T03:00:58;97315.88;;;18.84;100.00
57442;BME280;43284;47.042;15.498;2023-08-24T03:03:24;97310.47;;;18.86;100.00
57442;BME280;43284;47.042;15.498;2023-08-24T03:06:02;97320.81;;;18.89;100.00
57442;BME280;43284;47.042;15.498;2023-08-24T03:08:29;97316.16;;;18.81;100.00
57442;BME280;43284;47.042;15.498;2023-08-24T03:10:55;97318.53;;;18.84;100.00
57442;BME280;43284;47.042;15.498;2023-08-24T03:13:21;97320.97;;;18.87;100.00
57442;BME280;43284;47.042;15.498;2023-08-24T03:15:47;97326.38;;;18.86;100.00
57442;BME280;43284;47.042;15.498;2023-08-24T03:18:13;97326.63;;;18.83;100.00
57442;BME280;43284;47.042;15.498;2023-08-24T03:20:39;97327.69;;;18.80;100.00
57442;BME280;43284;47.042;15.498;2023-08-24T03:23:06;97330.47;;;18.79;100.00
57442;BME280;43284;47.042;15.498;2023-08-24T03:25:35;97339.25;;;18.79;100.00
57442;BME280;43284;47.042;15.498;2023-08-24T03:28:02;97334.91;;;18.78;100.00
57442;BME280;43284;47.042;15.498;2023-08-24T03:30:27;97331.44;;;18.78;100.00
57442;BME280;43284;47.042;15.498;2023-08-24T03:32:53;97333.97;;;18.79;100.00
57442;BME280;43284;47.042;15.498;2023-08-24T03:35:18;97340.22;;;18.78;100.00
57442;BME280;43284;47.042;15.498;2023-08-24T03:37:44;97334.53;;;18.71;100.00
57442;BME280;43284;47.042;15.498;2023-08-24T03:40:10;97335.75;;;18.67;100.00
57442;BME280;43284;47.042;15.498;2023-08-24T03:42:35;97339.72;;;18.62;100.00
57442;BME280;43284;47.042;15.498;2023-08-24T03:45:01;97332.84;;;18.59;100.00
57442;BME280;43284;47.042;15.498;2023-08-24T03:47:27;97342.72;;;18.57;100.00
57442;BME280;43284;47.042;15.498;2023-08-24T03:49:52;97341.38;;;18.51;100.00
57442;BME280;43284;47.042;15.498;2023-08-24T03:52:18;97340.56;;;18.51;100.00
57442;BME280;43284;47.042;15.498;2023-08-24T03:54:43;97336.09;;;18.51;100.00
57442;BME280;43284;47.042;15.498;2023-08-24T03:57:09;97329.13;;;18.50;100.00
57442;BME280;43284;47.042;15.498;2023-08-24T03:59:34;97325.50;;;18.51;100.00
57442;BME280;43284;47.042;15.498;2023-08-24T04:02:00;97330.69;;;18.53;100.00
57442;BME280;43284;47.042;15.498;2023-08-24T04:04:30;97330.78;;;18.51;100.00
57442;BME280;43284;47.042;15.498;2023-08-24T04:06:55;97326.84;;;18.46;100.00
57442;BME280;43284;47.042;15.498;2023-08-24T04:09:21;97331.25;;;18.45;100.00
57442;BME280;43284;47.042;15.498;2023-08-24T04:11:47;97341.84;;;18.45;100.00
57442;BME280;43284;47.042;15.498;2023-08-24T04:14:12;97335.72;;;18.45;100.00
57442;BME280;43284;47.042;15.498;2023-08-24T04:16:39;97334.06;;;18.32;100.00
57442;BME280;43284;47.042;15.498;2023-08-24T04:19:05;97335.72;;;18.33;100.00
57442;BME280;43284;47.042;15.498;2023-08-24T04:21:30;97344.38;;;18.36;100.00
57442;BME280;43284;47.042;15.498;2023-08-24T04:23:56;97341.63;;;18.37;100.00
57442;BME280;43284;47.042;15.498;2023-08-24T04:26:21;97345.00;;;18.39;100.00
57442;BME280;43284;47.042;15.498;2023-08-24T04:28:47;97341.28;;;18.42;100.00
57442;BME280;43284;47.042;15.498;2023-08-24T04:31:12;97348.22;;;18.43;100.00
57442;BME280;43284;47.042;15.498;2023-08-24T04:33:38;97346.31;;;18.45;100.00
57442;BME280;43284;47.042;15.498;2023-08-24T04:36:04;97344.75;;;18.42;100.00
57442;BME280;43284;47.042;15.498;2023-08-24T04:38:29;97341.38;;;18.40;100.00
57442;BME280;43284;47.042;15.498;2023-08-24T04:40:55;97350.03;;;18.42;100.00
57442;BME280;43284;47.042;15.498;2023-08-24T04:43:23;97354.25;;;18.45;100.00
57442;BME280;43284;47.042;15.498;2023-08-24T04:45:53;97354.88;;;18.48;100.00
57442;BME280;43284;47.042;15.498;2023-08-24T04:48:20;97363.44;;;18.52;100.00
57442;BME280;43284;47.042;15.498;2023-08-24T04:50:46;97363.28;;;18.53;100.00
57442;BME280;43284;47.042;15.498;2023-08-24T04:53:17;97358.72;;;18.56;100.00
57442;BME280;43284;47.042;15.498;2023-08-24T04:55:43;97360.41;;;18.57;100.00
57442;BME280;43284;47.042;15.498;2023-08-24T04:58:09;97366.31;;;18.60;100.00
57442;BME280;43284;47.042;15.498;2023-08-24T05:00:36;97354.75;;;18.61;100.00
57442;BME280;43284;47.042;15.498;2023-08-24T05:03:02;97356.22;;;18.65;100.00
57442;BME280;43284;47.042;15.498;2023-08-24T05:05:29;97354.16;;;18.69;100.00
57442;BME280;43284;47.042;15.498;2023-08-24T05:07:55;97356.69;;;18.70;100.00
57442;BME280;43284;47.042;15.498;2023-08-24T05:10:21;97357.28;;;18.74;100.00
57442;BME280;43284;47.042;15.498;2023-08-24T05:12:46;97357.03;;;18.77;100.00
57442;BME280;43284;47.042;15.498;2023-08-24T05:15:12;97355.88;;;18.81;100.00
57442;BME280;43284;47.042;15.498;2023-08-24T05:17:39;97354.66;;;18.85;100.00
57442;BME280;43284;47.042;15.498;2023-08-24T05:20:06;97366.56;;;18.91;100.00
57442;BME280;43284;47.042;15.498;2023-08-24T05:22:34;97363.56;;;18.96;100.00
57442;BME280;43284;47.042;15.498;2023-08-24T05:25:00;97362.22;;;19.01;100.00
57442;BME280;43284;47.042;15.498;2023-08-24T05:27:25;97361.16;;;19.04;100.00
57442;BME280;43284;47.042;15.498;2023-08-24T05:29:51;97370.53;;;19.08;100.00
57442;BME280;43284;47.042;15.498;2023-08-24T05:32:16;97364.03;;;19.12;100.00
57442;BME280;43284;47.042;15.498;2023-08-24T05:34:42;97363.53;;;19.18;100.00
57442;BME280;43284;47.042;15.498;2023-08-24T05:37:07;97369.19;;;19.25;100.00
57442;BME280;43284;47.042;15.498;2023-08-24T05:39:33;97360.88;;;19.29;100.00
57442;BME280;43284;47.042;15.498;2023-08-24T05:41:58;97367.94;;;19.40;100.00
57442;BME280;43284;47.042;15.498;2023-08-24T05:44:24;97368.28;;;19.47;100.00
57442;BME280;43284;47.042;15.498;2023-08-24T05:46:49;97371.41;;;19.52;100.00
57442;BME280;43284;47.042;15.498;2023-08-24T05:49:15;97365.59;;;19.58;100.00
57442;BME280;43284;47.042;15.498;2023-08-24T05:51:40;97366.31;;;19.71;100.00
57442;BME280;43284;47.042;15.498;2023-08-24T05:54:06;97362.78;;;19.82;100.00
57442;BME280;43284;47.042;15.498;2023-08-24T05:56:32;97354.91;;;19.92;100.00
57442;BME280;43284;47.042;15.498;2023-08-24T05:58:58;97361.25;;;20.01;100.00
57442;BME280;43284;47.042;15.498;2023-08-24T06:01:24;97363.13;;;20.10;100.00
57442;BME280;43284;47.042;15.498;2023-08-24T06:03:50;97362.63;;;20.16;100.00
57442;BME280;43284;47.042;15.498;2023-08-24T06:06:16;97359.69;;;20.19;100.00
57442;BME280;43284;47.042;15.498;2023-08-24T06:08:42;97357.34;;;20.26;100.00
57442;BME280;43284;47.042;15.498;2023-08-24T06:11:07;97363.81;;;20.33;100.00
57442;BME280;43284;47.042;15.498;2023-08-24T06:13:33;97359.09;;;20.36;100.00
57442;BME280;43284;47.042;15.498;2023-08-24T06:15:59;97362.06;;;20.43;100.00
57442;BME280;43284;47.042;15.498;2023-08-24T06:18:24;97367.00;;;20.48;100.00
57442;BME280;43284;47.042;15.498;2023-08-24T06:20:50;97363.94;;;20.52;100.00
57442;BME280;43284;47.042;15.498;2023-08-24T06:23:16;97357.31;;;20.58;100.00
57442;BME280;43284;47.042;15.498;2023-08-24T06:25:42;97361.22;;;20.64;100.00
57442;BME280;43284;47.042;15.498;2023-08-24T06:28:10;97355.50;;;20.68;100.00
57442;BME280;43284;47.042;15.498;2023-08-24T06:30:37;97359.34;;;20.75;100.00
57442;BME280;43284;47.042;15.498;2023-08-24T06:33:04;97361.91;;;20.87;100.00
57442;BME280;43284;47.042;15.498;2023-08-24T06:35:30;97359.72;;;21.02;100.00
57442;BME280;43284;47.042;15.498;2023-08-24T06:37:56;97354.59;;;21.19;100.00
57442;BME280;43284;47.042;15.498;2023-08-24T06:40:21;97360.06;;;21.37;100.00
57442;BME280;43284;47.042;15.498;2023-08-24T06:42:47;97372.44;;;21.48;100.00
57442;BME280;43284;47.042;15.498;2023-08-24T06:45:12;97368.41;;;21.54;100.00
57442;BME280;43284;47.042;15.498;2023-08-24T06:47:39;97365.03;;;21.62;100.00
57442;BME280;43284;47.042;15.498;2023-08-24T06:50:05;97362.13;;;21.65;100.00
57442;BME280;43284;47.042;15.498;2023-08-24T06:52:31;97359.75;;;21.71;100.00
57442;BME280;43284;47.042;15.498;2023-08-24T06:54:57;97354.97;;;21.75;100.00
57442;BME280;43284;47.042;15.498;2023-08-24T06:57:23;97360.44;;;21.83;100.00
57442;BME280;43284;47.042;15.498;2023-08-24T06:59:49;97358.19;;;21.88;100.00
57442;BME280;43284;47.042;15.498;2023-08-24T07:02:15;97349.50;;;21.96;100.00
57442;BME280;43284;47.042;15.498;2023-08-24T07:04:43;97352.31;;;22.04;100.00
57442;BME280;43284;47.042;15.498;2023-08-24T07:07:08;97350.63;;;22.13;100.00
57442;BME280;43284;47.042;15.498;2023-08-24T07:09:34;97357.78;;;22.22;100.00
57442;BME280;43284;47.042;15.498;2023-08-24T07:12:04;97348.78;;;22.33;100.00
57442;BME280;43284;47.042;15.498;2023-08-24T07:14:35;97348.88;;;22.51;100.00
57442;BME280;43284;47.042;15.498;2023-08-24T07:17:01;97354.03;;;22.62;100.00
57442;BME280;43284;47.042;15.498;2023-08-24T07:19:26;97352.56;;;22.77;100.00
57442;BME280;43284;47.042;15.498;2023-08-24T07:21:52;97349.00;;;22.87;100.00
57442;BME280;43284;47.042;15.498;2023-08-24T07:24:18;97351.78;;;22.95;100.00
57442;BME280;43284;47.042;15.498;2023-08-24T07:26:52;97347.44;;;23.03;100.00
57442;BME280;43284;47.042;15.498;2023-08-24T07:29:17;97352.88;;;23.12;100.00
57442;BME280;43284;47.042;15.498;2023-08-24T07:31:43;97358.31;;;23.20;100.00
57442;BME280;43284;47.042;15.498;2023-08-24T07:34:08;97353.91;;;23.29;100.00
57442;BME280;43284;47.042;15.498;2023-08-24T07:36:34;97351.84;;;23.40;100.00
57442;BME280;43284;47.042;15.498;2023-08-24T07:38:59;97347.31;;;23.51;100.00
57442;BME280;43284;47.042;15.498;2023-08-24T07:41:25;97347.38;;;23.59;96.93
57442;BME280;43284;47.042;15.498;2023-08-24T07:43:50;97346.16;;;23.71;97.77
57442;BME280;43284;47.042;15.498;2023-08-24T07:46:16;97352.13;;;23.83;98.09
57442;BME280;43284;47.042;15.498;2023-08-24T07:48:41;97351.22;;;23.92;95.88
57442;BME280;43284;47.042;15.498;2023-08-24T07:51:08;97343.25;;;24.00;93.43
57442;BME280;43284;47.042;15.498;2023-08-24T07:53:33;97353.19;;;24.08;94.00
57442;BME280;43284;47.042;15.498;2023-08-24T07:56:00;97345.06;;;24.18;93.58
57442;BME280;43284;47.042;15.498;2023-08-24T07:58:26;97344.47;;;24.24;92.19
57442;BME280;43284;47.042;15.498;2023-08-24T08:00:52;97346.50;;;24.30;90.04
57442;BME280;43284;47.042;15.498;2023-08-24T08:03:19;97347.41;;;24.39;88.62
57442;BME280;43284;47.042;15.498;2023-08-24T08:05:45;97350.38;;;24.54;85.64
57442;BME280;43284;47.042;15.498;2023-08-24T08:08:11;97347.63;;;24.72;85.60
57442;BME280;43284;47.042;15.498;2023-08-24T08:10:36;97348.19;;;24.83;83.39
57442;BME280;43284;47.042;15.498;2023-08-24T08:13:02;97348.03;;;24.85;83.14
57442;BME280;43284;47.042;15.498;2023-08-24T08:15:27;97342.53;;;24.86;84.34
57442;BME280;43284;47.042;15.498;2023-08-24T08:17:53;97343.06;;;24.98;83.80
57442;BME280;43284;47.042;15.498;2023-08-24T08:20:19;97352.81;;;25.07;81.69
57442;BME280;43284;47.042;15.498;2023-08-24T08:22:44;97347.88;;;25.21;80.71
57442;BME280;43284;47.042;15.498;2023-08-24T08:25:10;97358.94;;;25.26;80.77
57442;BME280;43284;47.042;15.498;2023-08-24T08:27:37;97359.28;;;25.31;84.46
57442;BME280;43284;47.042;15.498;2023-08-24T08:30:03;97354.75;;;25.32;83.63
57442;BME280;43284;47.042;15.498;2023-08-24T08:32:30;97356.28;;;25.34;80.81
57442;BME280;43284;47.042;15.498;2023-08-24T08:34:56;97357.81;;;25.45;80.32
57442;BME280;43284;47.042;15.498;2023-08-24T08:37:23;97356.50;;;25.57;81.73
57442;BME280;43284;47.042;15.498;2023-08-24T08:39:49;97349.00;;;25.61;83.00
57442;BME280;43284;47.042;15.498;2023-08-24T08:42:14;97357.69;;;25.63;79.11
57442;BME280;43284;47.042;15.498;2023-08-24T08:44:41;97353.34;;;25.62;79.44
57442;BME280;43284;47.042;15.498;2023-08-24T08:47:13;97337.47;;;25.77;78.04
57442;BME280;43284;47.042;15.498;2023-08-24T08:49:39;97343.19;;;25.90;79.90
57442;BME280;43284;47.042;15.498;2023-08-24T08:52:05;97335.00;;;25.92;81.57
57442;BME280;43284;47.042;15.498;2023-08-24T08:54:32;97337.00;;;25.89;81.29
57442;BME280;43284;47.042;15.498;2023-08-24T08:57:01;97338.84;;;25.97;82.37
57442;BME280;43284;47.042;15.498;2023-08-24T08:59:30;97337.66;;;26.00;80.25
57442;BME280;43284;47.042;15.498;2023-08-24T09:01:57;97343.69;;;26.10;82.63
57442;BME280;43284;47.042;15.498;2023-08-24T09:04:27;97338.50;;;26.17;80.85
57442;BME280;43284;47.042;15.498;2023-08-24T09:06:53;97344.53;;;26.27;81.06
57442;BME280;43284;47.042;15.498;2023-08-24T09:09:18;97345.19;;;26.37;79.70
57442;BME280;43284;47.042;15.498;2023-08-24T09:11:44;97332.47;;;26.31;73.61
57442;BME280;43284;47.042;15.498;2023-08-24T09:14:12;97332.94;;;26.35;74.86
57442;BME280;43284;47.042;15.498;2023-08-24T09:16:39;97336.44;;;26.43;78.61
57442;BME280;43284;47.042;15.498;2023-08-24T09:19:05;97335.78;;;26.49;78.01
57442;BME280;43284;47.042;15.498;2023-08-24T09:21:36;97339.31;;;26.58;77.75
57442;BME280;43284;47.042;15.498;2023-08-24T09:24:01;97337.94;;;26.70;77.08
57442;BME280;43284;47.042;15.498;2023-08-24T09:26:33;97333.91;;;26.75;77.69
57442;BME280;43284;47.042;15.498;2023-08-24T09:28:59;97335.56;;;26.84;78.30
57442;BME280;43284;47.042;15.498;2023-08-24T09:31:38;97330.69;;;26.87;74.23
57442;BME280;43284;47.042;15.498;2023-08-24T09:34:04;97328.34;;;26.84;73.43
57442;BME280;43284;47.042;15.498;2023-08-24T09:36:35;97322.16;;;26.84;72.13
57442;BME280;43284;47.042;15.498;2023-08-24T09:39:02;97327.50;;;26.84;73.30
57442;BME280;43284;47.042;15.498;2023-08-24T09:41:43;97321.75;;;26.95;76.05
57442;BME280;43284;47.042;15.498;2023-08-24T09:44:09;97325.09;;;26.97;73.79
57442;BME280;43284;47.042;15.498;2023-08-24T09:46:36;97330.63;;;27.04;74.91
57442;BME280;43284;47.042;15.498;2023-08-24T09:49:05;97322.03;;;27.08;74.85
57442;BME280;43284;47.042;15.498;2023-08-24T09:51:33;97318.00;;;27.12;74.22
57442;BME280;43284;47.042;15.498;2023-08-24T09:54:02;97310.59;;;27.23;72.42
57442;BME280;43284;47.042;15.498;2023-08-24T09:56:37;97317.72;;;27.39;71.93
57442;BME280;43284;47.042;15.498;2023-08-24T10:01:38;97309.97;;;27.44;71.32
57442;BME280;43284;47.042;15.498;2023-08-24T10:04:05;97307.09;;;27.45;69.10
57442;BME280;43284;47.042;15.498;2023-08-24T10:06:30;97301.84;;;27.52;71.69
57442;BME280;43284;47.042;15.498;2023-08-24T10:09:01;97299.47;;;27.57;71.76
57442;BME280;43284;47.042;15.498;2023-08-24T10:11:30;97289.81;;;27.71;68.78
57442;BME280;43284;47.042;15.498;2023-08-24T10:14:10;97296.38;;;27.91;71.11
57442;BME280;43284;47.042;15.498;2023-08-24T10:16:38;97291.66;;;27.93;70.78
57442;BME280;43284;47.042;15.498;2023-08-24T10:19:05;97291.66;;;27.93;69.30
57442;BME280;43284;47.042;15.498;2023-08-24T10:21:33;97289.56;;;28.04;70.08
57442;BME280;43284;47.042;15.498;2023-08-24T10:23:59;97281.31;;;28.05;67.15
57442;BME280;43284;47.042;15.498;2023-08-24T10:26:27;97281.72;;;28.17;69.06
57442;BME280;43284;47.042;15.498;2023-08-24T10:28:53;97282.09;;;28.29;67.59
57442;BME280;43284;47.042;15.498;2023-08-24T10:31:20;97272.38;;;28.28;67.71
57442;BME280;43284;47.042;15.498;2023-08-24T10:33:47;97275.16;;;28.34;68.10
57442;BME280;43284;47.042;15.498;2023-08-24T10:36:13;97276.69;;;28.52;67.44
57442;BME280;43284;47.042;15.498;2023-08-24T10:38:41;97264.16;;;28.59;63.58
57442;BME280;43284;47.042;15.498;2023-08-24T10:41:10;97276.03;;;28.65;65.65
57442;BME280;43284;47.042;15.498;2023-08-24T10:43:48;97270.94;;;28.70;65.67
57442;BME280;43284;47.042;15.498;2023-08-24T10:46:15;97259.34;;;28.69;64.71
57442;BME280;43284;47.042;15.498;2023-08-24T10:53:57;97263.50;;;28.87;62.00
57442;BME280;43284;47.042;15.498;2023-08-24T10:56:35;97253.16;;;29.05;63.98
57442;BME280;43284;47.042;15.498;2023-08-24T10:59:15;97251.41;;;28.98;60.94
57442;BME280;43284;47.042;15.498;2023-08-24T11:01:43;97261.63;;;29.02;64.93
57442;BME280;43284;47.042;15.498;2023-08-24T11:04:20;97253.25;;;29.12;62.15
57442;BME280;43284;47.042;15.498;2023-08-24T11:06:53;97250.56;;;29.12;61.74
57442;BME280;43284;47.042;15.498;2023-08-24T11:09:19;97250.78;;;29.10;59.91
57442;BME280;43284;47.042;15.498;2023-08-24T11:12:00;97246.78;;;29.28;62.71
57442;BME280;43284;47.042;15.498;2023-08-24T11:14:26;97247.78;;;29.42;61.28
57442;BME280;43284;47.042;15.498;2023-08-24T11:16:53;97237.91;;;29.49;63.00
57442;BME280;43284;47.042;15.498;2023-08-24T11:19:19;97245.16;;;29.48;61.20
57442;BME280;43284;47.042;15.498;2023-08-24T11:21:46;97248.63;;;29.42;59.14
57442;BME280;43284;47.042;15.498;2023-08-24T11:24:13;97237.84;;;29.42;60.68
57442;BME280;43284;47.042;15.498;2023-08-24T11:26:41;97235.78;;;29.44;61.00
57442;BME280;43284;47.042;15.498;2023-08-24T11:29:07;97241.06;;;29.52;59.15
57442;BME280;43284;47.042;15.498;2023-08-24T11:31:34;97226.19;;;29.56;60.69
57442;BME280;43284;47.042;15.498;2023-08-24T11:34:00;97235.41;;;29.69;66.34
57442;BME280;43284;47.042;15.498;2023-08-24T11:36:26;97228.63;;;29.73;59.20
57442;BME280;43284;47.042;15.498;2023-08-24T11:38:56;97232.06;;;29.88;57.51
57442;BME280;43284;47.042;15.498;2023-08-24T11:41:22;97225.66;;;29.89;59.56
57442;BME280;43284;47.042;15.498;2023-08-24T11:43:48;97222.38;;;29.94;57.80
57442;BME280;43284;47.042;15.498;2023-08-24T11:46:17;97220.75;;;29.99;57.56
57442;BME280;43284;47.042;15.498;2023-08-24T11:48:43;97224.34;;;30.07;57.88
57442;BME280;43284;47.042;15.498;2023-08-24T11:51:10;97224.16;;;30.15;57.42
57442;BME280;43284;47.042;15.498;2023-08-24T11:53:42;97220.81;;;30.13;58.86
57442;BME280;43284;47.042;15.498;2023-08-24T11:56:08;97221.69;;;30.13;57.77
57442;BME280;43284;47.042;15.498;2023-08-24T11:58:40;97222.09;;;30.17;55.73
57442;BME280;43284;47.042;15.498;2023-08-24T12:01:08;97224.16;;;30.15;58.35
57442;BME280;43284;47.042;15.498;2023-08-24T12:03:35;97218.53;;;30.10;57.15
57442;BME280;43284;47.042;15.498;2023-08-24T12:06:01;97215.69;;;30.18;58.93
57442;BME280;43284;47.042;15.498;2023-08-24T12:08:29;97215.09;;;30.23;60.24
57442;BME280;43284;47.042;15.498;2023-08-24T12:10:54;97211.66;;;30.29;59.26
57442;BME280;43284;47.042;15.498;2023-08-24T12:13:20;97212.72;;;30.41;58.92
57442;BME280;43284;47.042;15.498;2023-08-24T12:15:46;97203.88;;;30.54;60.36
57442;BME280;43284;47.042;15.498;2023-08-24T12:18:13;97198.94;;;30.57;59.32
57442;BME280;43284;47.042;15.498;2023-08-24T12:20:42;97196.66;;;30.61;58.03
57442;BME280;43284;47.042;15.498;2023-08-24T12:23:10;97189.44;;;30.68;58.30
57442;BME280;43284;47.042;15.498;2023-08-24T12:25:42;97193.81;;;30.83;60.04
57442;BME280;43284;47.042;15.498;2023-08-24T12:28:10;97193.50;;;30.92;59.51
57442;BME280;43284;47.042;15.498;2023-08-24T12:30:52;97181.25;;;30.96;58.05
57442;BME280;43284;47.042;15.498;2023-08-24T12:33:25;97170.88;;;31.00;55.65
57442;BME280;43284;47.042;15.498;2023-08-24T12:35:51;97170.88;;;31.07;57.36
57442;BME280;43284;47.042;15.498;2023-08-24T12:38:17;97165.72;;;31.25;58.49
57442;BME280;43284;47.042;15.498;2023-08-24T12:40:43;97163.22;;;31.30;57.45
57442;BME280;43284;47.042;15.498;2023-08-24T12:43:09;97158.47;;;31.39;56.89
57442;BME280;43284;47.042;15.498;2023-08-24T12:45:34;97153.06;;;31.39;57.53
57442;BME280;43284;47.042;15.498;2023-08-24T12:48:01;97146.03;;;31.45;55.16
57442;BME280;43284;47.042;15.498;2023-08-24T12:50:27;97154.78;;;31.53;55.87
57442;BME280;43284;47.042;15.498;2023-08-24T12:52:52;97158.94;;;31.56;56.48
57442;BME280;43284;47.042;15.498;2023-08-24T12:55:21;97151.44;;;31.65;57.12
57442;BME280;43284;47.042;15.498;2023-08-24T12:57:47;97151.22;;;31.66;57.32